sensor_id;sensor_type;location;lat;lon;timestamp;P1;durP1;ratioP1;P2;durP2;ratioP2
57832;SDS011;43667;53.036;6.740;2022-07-19T00:00:23;10.30;;;5.63;;
57832;SDS011;43667;53.036;6.740;2022-07-19T00:02:50;8.25;;;5.10;;
57832;SDS011;43667;53.036;6.740;2022-07-19T00:05:19;8.38;;;5.38;;
57832;SDS011;43667;53.036;6.740;2022-07-19T00:07:45;8.90;;;5.18;;
57832;SDS011;43667;53.036;6.740;2022-07-19T00:10:11;8.15;;;5.03;;
57832;SDS011;43667;53.036;6.740;2022-07-19T00:12:39;6.38;;;4.63;;
57832;SDS011;43667;53.036;6.740;2022-07-19T00:15:05;9.68;;;5.00;;
57832;SDS011;43667;53.036;6.740;2022-07-19T00:17:33;6.32;;;4.20;;
57832;SDS011;43667;53.036;6.740;2022-07-19T00:19:59;7.68;;;4.15;;
57832;SDS011;43667;53.036;6.740;2022-07-19T00:22:25;7.00;;;4.63;;
57832;SDS011;43667;53.036;6.740;2022-07-19T00:24:51;5.75;;;4.35;;
57832;SDS011;43667;53.036;6.740;2022-07-19T00:27:16;10.10;;;4.20;;
57832;SDS011;43667;53.036;6.740;2022-07-19T00:29:42;5.88;;;4.28;;
57832;SDS011;43667;53.036;6.740;2022-07-19T00:32:08;5.45;;;4.20;;
57832;SDS011;43667;53.036;6.740;2022-07-19T00:34:33;6.30;;;4.30;;
57832;SDS011;43667;53.036;6.740;2022-07-19T00:36:59;9.23;;;4.20;;
57832;SDS011;43667;53.036;6.740;2022-07-19T00:39:25;8.23;;;4.30;;
57832;SDS011;43667;53.036;6.740;2022-07-19T00:41:50;6.35;;;4.53;;
57832;SDS011;43667;53.036;6.740;2022-07-19T00:44:16;6.75;;;3.97;;
57832;SDS011;43667;53.036;6.740;2022-07-19T00:46:41;10.20;;;4.35;;
57832;SDS011;43667;53.036;6.740;2022-07-19T00:49:07;6.35;;;4.72;;
57832;SDS011;43667;53.036;6.740;2022-07-19T00:51:33;7.90;;;4.82;;
57832;SDS011;43667;53.036;6.740;2022-07-19T00:54:01;6.45;;;4.28;;
57832;SDS011;43667;53.036;6.740;2022-07-19T00:56:28;7.25;;;5.22;;
57832;SDS011;43667;53.036;6.740;2022-07-19T00:58:57;7.20;;;5.05;;
57832;SDS011;43667;53.036;6.740;2022-07-19T01:01:24;8.70;;;4.57;;
57832;SDS011;43667;53.036;6.740;2022-07-19T01:03:50;7.55;;;4.20;;
57832;SDS011;43667;53.036;6.740;2022-07-19T01:06:16;7.45;;;4.40;;
57832;SDS011;43667;53.036;6.740;2022-07-19T01:08:42;8.07;;;4.70;;
57832;SDS011;43667;53.036;6.740;2022-07-19T01:11:08;7.68;;;4.28;;
57832;SDS011;43667;53.036;6.740;2022-07-19T01:13:33;7.10;;;4.60;;
57832;SDS011;43667;53.036;6.740;2022-07-19T01:15:59;7.13;;;4.38;;
57832;SDS011;43667;53.036;6.740;2022-07-19T01:18:25;9.75;;;4.93;;
57832;SDS011;43667;53.036;6.740;2022-07-19T01:20:51;5.22;;;4.25;;
57832;SDS011;43667;53.036;6.740;2022-07-19T01:23:17;5.38;;;4.40;;
57832;SDS011;43667;53.036;6.740;2022-07-19T01:25:42;8.02;;;4.70;;
57832;SDS011;43667;53.036;6.740;2022-07-19T01:28:08;5.40;;;4.00;;
57832;SDS011;43667;53.036;6.740;2022-07-19T01:30:34;7.63;;;4.57;;
57832;SDS011;43667;53.036;6.740;2022-07-19T01:33:00;7.20;;;4.45;;
57832;SDS011;43667;53.036;6.740;2022-07-19T01:35:27;8.77;;;5.05;;
57832;SDS011;43667;53.036;6.740;2022-07-19T01:37:54;6.43;;;4.47;;
57832;SDS011;43667;53.036;6.740;2022-07-19T01:40:20;8.10;;;4.82;;
57832;SDS011;43667;53.036;6.740;2022-07-19T01:42:46;8.23;;;4.15;;
57832;SDS011;43667;53.036;6.740;2022-07-19T01:45:13;6.18;;;4.75;;
57832;SDS011;43667;53.036;6.740;2022-07-19T01:47:39;5.65;;;4.55;;
57832;SDS011;43667;53.036;6.740;2022-07-19T01:50:09;7.03;;;4.30;;
57832;SDS011;43667;53.036;6.740;2022-07-19T01:52:35;6.00;;;3.85;;
57832;SDS011;43667;53.036;6.740;2022-07-19T01:55:01;6.30;;;4.20;;
57832;SDS011;43667;53.036;6.740;2022-07-19T01:57:27;6.40;;;4.60;;
57832;SDS011;43667;53.036;6.740;2022-07-19T01:59:53;6.43;;;4.30;;
57832;SDS011;43667;53.036;6.740;2022-07-19T02:02:19;8.63;;;4.35;;
57832;SDS011;43667;53.036;6.740;2022-07-19T02:04:45;8.68;;;4.40;;
57832;SDS011;43667;53.036;6.740;2022-07-19T02:07:11;7.35;;;4.15;;
57832;SDS011;43667;53.036;6.740;2022-07-19T02:09:36;7.47;;;4.20;;
57832;SDS011;43667;53.036;6.740;2022-07-19T02:12:02;10.88;;;4.15;;
57832;SDS011;43667;53.036;6.740;2022-07-19T02:14:28;6.82;;;4.53;;
57832;SDS011;43667;53.036;6.740;2022-07-19T02:16:53;6.00;;;4.55;;
57832;SDS011;43667;53.036;6.740;2022-07-19T02:19:19;7.90;;;4.05;;
57832;SDS011;43667;53.036;6.740;2022-07-19T02:21:46;7.15;;;4.32;;
57832;SDS011;43667;53.036;6.740;2022-07-19T02:24:11;11.05;;;4.72;;
57832;SDS011;43667;53.036;6.740;2022-07-19T02:26:37;7.10;;;4.50;;
57832;SDS011;43667;53.036;6.740;2022-07-19T02:29:03;5.13;;;4.60;;
57832;SDS011;43667;53.036;6.740;2022-07-19T02:31:29;7.07;;;5.60;;
57832;SDS011;43667;53.036;6.740;2022-07-19T02:33:54;6.25;;;5.40;;
57832;SDS011;43667;53.036;6.740;2022-07-19T02:36:20;7.47;;;5.40;;
57832;SDS011;43667;53.036;6.740;2022-07-19T02:38:45;7.78;;;5.75;;
57832;SDS011;43667;53.036;6.740;2022-07-19T02:41:11;7.65;;;5.13;;
57832;SDS011;43667;53.036;6.740;2022-07-19T02:43:38;8.70;;;5.38;;
57832;SDS011;43667;53.036;6.740;2022-07-19T02:46:05;10.80;;;4.93;;
57832;SDS011;43667;53.036;6.740;2022-07-19T02:48:30;8.02;;;4.78;;
57832;SDS011;43667;53.036;6.740;2022-07-19T02:50:56;7.28;;;4.68;;
57832;SDS011;43667;53.036;6.740;2022-07-19T02:53:22;7.38;;;4.25;;
57832;SDS011;43667;53.036;6.740;2022-07-19T02:55:48;7.15;;;4.55;;
57832;SDS011;43667;53.036;6.740;2022-07-19T02:58:15;6.95;;;4.60;;
57832;SDS011;43667;53.036;6.740;2022-07-19T03:00:41;7.25;;;4.47;;
57832;SDS011;43667;53.036;6.740;2022-07-19T03:03:07;9.45;;;5.28;;
57832;SDS011;43667;53.036;6.740;2022-07-19T03:05:51;12.75;;;5.30;;
57832;SDS011;43667;53.036;6.740;2022-07-19T03:08:17;6.55;;;4.90;;
57832;SDS011;43667;53.036;6.740;2022-07-19T03:10:43;7.18;;;4.57;;
57832;SDS011;43667;53.036;6.740;2022-07-19T03:13:09;6.63;;;4.88;;
57832;SDS011;43667;53.036;6.740;2022-07-19T03:15:35;10.20;;;5.22;;
57832;SDS011;43667;53.036;6.740;2022-07-19T03:18:01;10.80;;;4.72;;
57832;SDS011;43667;53.036;6.740;2022-07-19T03:20:28;9.35;;;4.93;;
57832;SDS011;43667;53.036;6.740;2022-07-19T03:22:53;8.15;;;5.10;;
57832;SDS011;43667;53.036;6.740;2022-07-19T03:25:19;9.40;;;5.35;;
57832;SDS011;43667;53.036;6.740;2022-07-19T03:27:44;8.32;;;5.40;;
57832;SDS011;43667;53.036;6.740;2022-07-19T03:30:10;8.98;;;5.35;;
57832;SDS011;43667;53.036;6.740;2022-07-19T03:32:36;9.93;;;5.47;;
57832;SDS011;43667;53.036;6.740;2022-07-19T03:35:01;8.77;;;5.22;;
57832;SDS011;43667;53.036;6.740;2022-07-19T03:37:27;8.02;;;4.63;;
57832;SDS011;43667;53.036;6.740;2022-07-19T03:39:53;8.00;;;4.43;;
57832;SDS011;43667;53.036;6.740;2022-07-19T03:42:18;9.48;;;4.70;;
57832;SDS011;43667;53.036;6.740;2022-07-19T03:44:44;10.43;;;5.30;;
57832;SDS011;43667;53.036;6.740;2022-07-19T03:47:10;8.27;;;5.32;;
57832;SDS011;43667;53.036;6.740;2022-07-19T03:49:35;6.43;;;4.90;;
57832;SDS011;43667;53.036;6.740;2022-07-19T03:52:01;10.45;;;5.00;;
57832;SDS011;43667;53.036;6.740;2022-07-19T03:54:27;8.00;;;5.57;;
57832;SDS011;43667;53.036;6.740;2022-07-19T03:56:52;6.43;;;4.88;;
57832;SDS011;43667;53.036;6.740;2022-07-19T03:59:19;7.50;;;4.80;;
57832;SDS011;43667;53.036;6.740;2022-07-19T04:01:47;6.32;;;4.82;;
57832;SDS011;43667;53.036;6.740;2022-07-19T04:04:13;10.23;;;6.18;;
57832;SDS011;43667;53.036;6.740;2022-07-19T04:06:39;8.60;;;6.07;;
57832;SDS011;43667;53.036;6.740;2022-07-19T04:09:04;8.63;;;5.90;;
57832;SDS011;43667;53.036;6.740;2022-07-19T04:11:30;11.50;;;6.43;;
57832;SDS011;43667;53.036;6.740;2022-07-19T04:13:56;9.23;;;5.13;;
57832;SDS011;43667;53.036;6.740;2022-07-19T04:16:21;7.72;;;5.30;;
57832;SDS011;43667;53.036;6.740;2022-07-19T04:18:47;9.02;;;4.88;;
57832;SDS011;43667;53.036;6.740;2022-07-19T04:21:12;13.82;;;4.88;;
57832;SDS011;43667;53.036;6.740;2022-07-19T04:23:38;7.68;;;4.85;;
57832;SDS011;43667;53.036;6.740;2022-07-19T04:26:03;8.52;;;5.72;;
57832;SDS011;43667;53.036;6.740;2022-07-19T04:28:29;13.90;;;6.72;;
57832;SDS011;43667;53.036;6.740;2022-07-19T04:30:55;11.20;;;6.15;;
57832;SDS011;43667;53.036;6.740;2022-07-19T04:33:20;17.92;;;7.03;;
57832;SDS011;43667;53.036;6.740;2022-07-19T04:35:46;16.45;;;6.70;;
57832;SDS011;43667;53.036;6.740;2022-07-19T04:38:11;17.20;;;6.65;;
57832;SDS011;43667;53.036;6.740;2022-07-19T04:40:37;12.82;;;5.45;;
57832;SDS011;43667;53.036;6.740;2022-07-19T04:43:04;6.45;;;5.25;;
57832;SDS011;43667;53.036;6.740;2022-07-19T04:45:29;10.73;;;5.03;;
57832;SDS011;43667;53.036;6.740;2022-07-19T04:47:55;6.10;;;4.30;;
57832;SDS011;43667;53.036;6.740;2022-07-19T04:50:21;5.13;;;4.25;;
57832;SDS011;43667;53.036;6.740;2022-07-19T04:52:46;7.60;;;4.55;;
57832;SDS011;43667;53.036;6.740;2022-07-19T04:55:12;10.32;;;4.55;;
57832;SDS011;43667;53.036;6.740;2022-07-19T04:57:38;9.30;;;4.68;;
57832;SDS011;43667;53.036;6.740;2022-07-19T05:00:04;7.13;;;4.03;;
57832;SDS011;43667;53.036;6.740;2022-07-19T05:02:34;6.20;;;4.20;;
57832;SDS011;43667;53.036;6.740;2022-07-19T05:05:00;6.50;;;4.50;;
57832;SDS011;43667;53.036;6.740;2022-07-19T05:07:25;8.18;;;4.32;;
57832;SDS011;43667;53.036;6.740;2022-07-19T05:09:51;8.27;;;4.85;;
57832;SDS011;43667;53.036;6.740;2022-07-19T05:12:16;10.52;;;6.30;;
57832;SDS011;43667;53.036;6.740;2022-07-19T05:14:42;9.75;;;5.38;;
57832;SDS011;43667;53.036;6.740;2022-07-19T05:17:08;7.32;;;5.07;;
57832;SDS011;43667;53.036;6.740;2022-07-19T05:19:33;10.90;;;5.80;;
57832;SDS011;43667;53.036;6.740;2022-07-19T05:21:59;7.00;;;5.35;;
57832;SDS011;43667;53.036;6.740;2022-07-19T05:24:24;11.93;;;5.65;;
57832;SDS011;43667;53.036;6.740;2022-07-19T05:26:50;10.43;;;5.45;;
57832;SDS011;43667;53.036;6.740;2022-07-19T05:29:16;11.38;;;5.45;;
57832;SDS011;43667;53.036;6.740;2022-07-19T05:31:41;11.10;;;5.20;;
57832;SDS011;43667;53.036;6.740;2022-07-19T05:34:07;8.88;;;5.13;;
57832;SDS011;43667;53.036;6.740;2022-07-19T05:36:32;11.25;;;5.68;;
57832;SDS011;43667;53.036;6.740;2022-07-19T05:38:58;13.82;;;5.97;;
57832;SDS011;43667;53.036;6.740;2022-07-19T05:41:23;10.00;;;5.80;;
57832;SDS011;43667;53.036;6.740;2022-07-19T05:43:50;12.88;;;6.13;;
57832;SDS011;43667;53.036;6.740;2022-07-19T05:46:16;6.85;;;5.68;;
57832;SDS011;43667;53.036;6.740;2022-07-19T05:48:42;8.07;;;5.45;;
57832;SDS011;43667;53.036;6.740;2022-07-19T05:51:08;8.05;;;6.07;;
57832;SDS011;43667;53.036;6.740;2022-07-19T05:53:34;7.88;;;5.80;;
57832;SDS011;43667;53.036;6.740;2022-07-19T05:56:01;11.05;;;5.93;;
57832;SDS011;43667;53.036;6.740;2022-07-19T05:58:27;9.77;;;5.82;;
57832;SDS011;43667;53.036;6.740;2022-07-19T06:00:53;8.77;;;5.85;;
57832;SDS011;43667;53.036;6.740;2022-07-19T06:03:37;11.02;;;6.15;;
57832;SDS011;43667;53.036;6.740;2022-07-19T06:06:03;14.73;;;5.82;;
57832;SDS011;43667;53.036;6.740;2022-07-19T06:08:29;9.98;;;6.53;;
57832;SDS011;43667;53.036;6.740;2022-07-19T06:10:54;8.07;;;6.38;;
57832;SDS011;43667;53.036;6.740;2022-07-19T06:13:20;10.38;;;6.30;;
57832;SDS011;43667;53.036;6.740;2022-07-19T06:15:46;9.32;;;6.50;;
57832;SDS011;43667;53.036;6.740;2022-07-19T06:18:12;11.63;;;6.47;;
57832;SDS011;43667;53.036;6.740;2022-07-19T06:20:37;8.13;;;6.18;;
57832;SDS011;43667;53.036;6.740;2022-07-19T06:23:03;11.55;;;6.32;;
57832;SDS011;43667;53.036;6.740;2022-07-19T06:25:28;9.57;;;5.88;;
57832;SDS011;43667;53.036;6.740;2022-07-19T06:27:54;7.75;;;5.88;;
57832;SDS011;43667;53.036;6.740;2022-07-19T06:30:19;10.80;;;5.53;;
57832;SDS011;43667;53.036;6.740;2022-07-19T06:32:45;9.77;;;6.05;;
57832;SDS011;43667;53.036;6.740;2022-07-19T06:35:11;8.32;;;5.60;;
57832;SDS011;43667;53.036;6.740;2022-07-19T06:37:36;7.63;;;5.13;;
57832;SDS011;43667;53.036;6.740;2022-07-19T06:40:02;8.05;;;5.25;;
57832;SDS011;43667;53.036;6.740;2022-07-19T06:42:29;10.15;;;5.18;;
57832;SDS011;43667;53.036;6.740;2022-07-19T06:44:55;8.88;;;4.90;;
57832;SDS011;43667;53.036;6.740;2022-07-19T06:47:21;10.98;;;5.55;;
57832;SDS011;43667;53.036;6.740;2022-07-19T06:49:46;10.90;;;5.28;;
57832;SDS011;43667;53.036;6.740;2022-07-19T06:52:12;8.88;;;5.15;;
57832;SDS011;43667;53.036;6.740;2022-07-19T06:54:38;9.25;;;4.25;;
57832;SDS011;43667;53.036;6.740;2022-07-19T06:57:03;7.55;;;4.75;;
57832;SDS011;43667;53.036;6.740;2022-07-19T06:59:31;10.77;;;5.00;;
57832;SDS011;43667;53.036;6.740;2022-07-19T07:01:57;10.32;;;4.57;;
57832;SDS011;43667;53.036;6.740;2022-07-19T07:04:22;7.55;;;5.22;;
57832;SDS011;43667;53.036;6.740;2022-07-19T07:06:48;11.40;;;4.78;;
57832;SDS011;43667;53.036;6.740;2022-07-19T07:09:13;7.88;;;4.97;;
57832;SDS011;43667;53.036;6.740;2022-07-19T07:11:39;9.77;;;4.97;;
57832;SDS011;43667;53.036;6.740;2022-07-19T07:14:04;9.35;;;4.80;;
57832;SDS011;43667;53.036;6.740;2022-07-19T07:16:30;6.25;;;4.63;;
57832;SDS011;43667;53.036;6.740;2022-07-19T07:18:55;9.15;;;4.68;;
57832;SDS011;43667;53.036;6.740;2022-07-19T07:21:21;7.38;;;4.20;;
57832;SDS011;43667;53.036;6.740;2022-07-19T07:23:47;6.25;;;4.45;;
57832;SDS011;43667;53.036;6.740;2022-07-19T07:26:12;5.90;;;4.13;;
57832;SDS011;43667;53.036;6.740;2022-07-19T07:28:38;6.93;;;4.32;;
57832;SDS011;43667;53.036;6.740;2022-07-19T07:31:04;6.47;;;3.83;;
57832;SDS011;43667;53.036;6.740;2022-07-19T07:33:30;6.82;;;4.25;;
57832;SDS011;43667;53.036;6.740;2022-07-19T07:35:55;5.40;;;3.67;;
57832;SDS011;43667;53.036;6.740;2022-07-19T07:38:21;4.88;;;3.25;;
57832;SDS011;43667;53.036;6.740;2022-07-19T07:40:46;6.70;;;3.70;;
57832;SDS011;43667;53.036;6.740;2022-07-19T07:43:12;5.50;;;2.92;;
57832;SDS011;43667;53.036;6.740;2022-07-19T07:45:38;9.05;;;3.50;;
57832;SDS011;43667;53.036;6.740;2022-07-19T07:48:03;6.18;;;3.30;;
57832;SDS011;43667;53.036;6.740;2022-07-19T07:50:29;6.00;;;3.65;;
57832;SDS011;43667;53.036;6.740;2022-07-19T07:52:55;12.02;;;3.50;;
57832;SDS011;43667;53.036;6.740;2022-07-19T07:55:20;8.48;;;3.42;;
57832;SDS011;43667;53.036;6.740;2022-07-19T07:57:46;5.70;;;3.30;;
57832;SDS011;43667;53.036;6.740;2022-07-19T08:00:12;6.10;;;3.53;;
57832;SDS011;43667;53.036;6.740;2022-07-19T08:02:42;6.40;;;3.00;;
57832;SDS011;43667;53.036;6.740;2022-07-19T08:05:09;6.45;;;2.88;;
57832;SDS011;43667;53.036;6.740;2022-07-19T08:07:36;7.10;;;3.63;;
57832;SDS011;43667;53.036;6.740;2022-07-19T08:10:03;6.05;;;3.15;;
57832;SDS011;43667;53.036;6.740;2022-07-19T08:12:30;12.18;;;3.00;;
57832;SDS011;43667;53.036;6.740;2022-07-19T08:14:56;9.50;;;2.92;;
57832;SDS011;43667;53.036;6.740;2022-07-19T08:17:22;6.78;;;3.05;;
57832;SDS011;43667;53.036;6.740;2022-07-19T08:19:47;8.57;;;3.03;;
57832;SDS011;43667;53.036;6.740;2022-07-19T08:22:16;6.70;;;3.08;;
57832;SDS011;43667;53.036;6.740;2022-07-19T08:24:43;4.38;;;2.50;;
57832;SDS011;43667;53.036;6.740;2022-07-19T08:27:09;5.55;;;3.08;;
57832;SDS011;43667;53.036;6.740;2022-07-19T08:29:35;6.28;;;2.50;;
57832;SDS011;43667;53.036;6.740;2022-07-19T08:32:01;6.63;;;2.70;;
57832;SDS011;43667;53.036;6.740;2022-07-19T08:34:26;11.02;;;2.55;;
57832;SDS011;43667;53.036;6.740;2022-07-19T08:36:52;7.68;;;2.47;;
57832;SDS011;43667;53.036;6.740;2022-07-19T08:39:17;6.68;;;2.38;;
57832;SDS011;43667;53.036;6.740;2022-07-19T08:41:43;5.85;;;2.63;;
57832;SDS011;43667;53.036;6.740;2022-07-19T08:44:10;5.93;;;2.42;;
57832;SDS011;43667;53.036;6.740;2022-07-19T08:46:36;4.82;;;2.35;;
57832;SDS011;43667;53.036;6.740;2022-07-19T08:49:02;6.47;;;2.88;;
57832;SDS011;43667;53.036;6.740;2022-07-19T08:51:28;7.50;;;2.80;;
57832;SDS011;43667;53.036;6.740;2022-07-19T08:53:54;7.32;;;2.28;;
57832;SDS011;43667;53.036;6.740;2022-07-19T08:56:20;6.85;;;2.50;;
57832;SDS011;43667;53.036;6.740;2022-07-19T08:59:05;6.35;;;2.47;;
57832;SDS011;43667;53.036;6.740;2022-07-19T09:01:31;7.15;;;2.17;;
57832;SDS011;43667;53.036;6.740;2022-07-19T09:04:10;4.47;;;2.08;;
57832;SDS011;43667;53.036;6.740;2022-07-19T09:06:40;4.70;;;2.15;;
57832;SDS011;43667;53.036;6.740;2022-07-19T09:09:14;3.97;;;1.70;;
57832;SDS011;43667;53.036;6.740;2022-07-19T09:11:42;4.43;;;2.40;;
57832;SDS011;43667;53.036;6.740;2022-07-19T09:14:14;5.72;;;2.03;;
57832;SDS011;43667;53.036;6.740;2022-07-19T09:19:42;9.38;;;2.75;;
57832;SDS011;43667;53.036;6.740;2022-07-19T09:22:17;4.80;;;2.15;;
57832;SDS011;43667;53.036;6.740;2022-07-19T09:24:44;4.80;;;1.98;;
57832;SDS011;43667;53.036;6.740;2022-07-19T09:27:13;3.83;;;1.90;;
57832;SDS011;43667;53.036;6.740;2022-07-19T09:29:45;6.93;;;1.83;;
57832;SDS011;43667;53.036;6.740;2022-07-19T09:32:14;7.97;;;1.90;;
57832;SDS011;43667;53.036;6.740;2022-07-19T09:34:42;5.10;;;2.10;;
57832;SDS011;43667;53.036;6.740;2022-07-19T09:37:24;3.25;;;1.80;;
57832;SDS011;43667;53.036;6.740;2022-07-19T09:39:53;2.38;;;1.55;;
57832;SDS011;43667;53.036;6.740;2022-07-19T09:42:22;4.03;;;1.60;;
57832;SDS011;43667;53.036;6.740;2022-07-19T09:44:57;3.97;;;1.65;;
57832;SDS011;43667;53.036;6.740;2022-07-19T09:47:31;7.03;;;1.80;;
57832;SDS011;43667;53.036;6.740;2022-07-19T09:49:57;4.78;;;1.70;;
57832;SDS011;43667;53.036;6.740;2022-07-19T09:52:23;5.25;;;1.90;;
57832;SDS011;43667;53.036;6.740;2022-07-19T09:54:50;5.10;;;1.60;;
57832;SDS011;43667;53.036;6.740;2022-07-19T09:57:16;5.68;;;2.42;;
57832;SDS011;43667;53.036;6.740;2022-07-19T09:59:49;8.90;;;1.87;;
57832;SDS011;43667;53.036;6.740;2022-07-19T10:02:19;7.72;;;1.92;;
57832;SDS011;43667;53.036;6.740;2022-07-19T10:04:47;3.85;;;1.40;;
57832;SDS011;43667;53.036;6.740;2022-07-19T10:07:17;3.17;;;1.63;;
57832;SDS011;43667;53.036;6.740;2022-07-19T10:09:43;5.88;;;1.75;;
57832;SDS011;43667;53.036;6.740;2022-07-19T10:12:10;4.35;;;1.48;;
57832;SDS011;43667;53.036;6.740;2022-07-19T10:14:37;8.43;;;1.45;;
57832;SDS011;43667;53.036;6.740;2022-07-19T10:17:21;4.15;;;1.60;;
57832;SDS011;43667;53.036;6.740;2022-07-19T10:19:57;4.95;;;1.40;;
57832;SDS011;43667;53.036;6.740;2022-07-19T10:22:25;4.68;;;1.83;;
57832;SDS011;43667;53.036;6.740;2022-07-19T10:24:59;5.28;;;1.52;;
57832;SDS011;43667;53.036;6.740;2022-07-19T10:32:36;2.72;;;1.23;;
57832;SDS011;43667;53.036;6.740;2022-07-19T10:37:45;3.70;;;1.25;;
57832;SDS011;43667;53.036;6.740;2022-07-19T10:40:14;6.45;;;1.40;;
57832;SDS011;43667;53.036;6.740;2022-07-19T10:48:08;6.43;;;1.40;;
57832;SDS011;43667;53.036;6.740;2022-07-19T10:50:46;6.40;;;1.30;;
57832;SDS011;43667;53.036;6.740;2022-07-19T10:58:46;3.65;;;1.30;;
57832;SDS011;43667;53.036;6.740;2022-07-19T11:01:16;4.15;;;1.67;;
57832;SDS011;43667;53.036;6.740;2022-07-19T11:03:44;7.53;;;1.30;;
57832;SDS011;43667;53.036;6.740;2022-07-19T11:06:18;6.40;;;1.80;;
57832;SDS011;43667;53.036;6.740;2022-07-19T11:08:48;5.40;;;1.50;;
57832;SDS011;43667;53.036;6.740;2022-07-19T11:11:17;4.50;;;1.38;;
57832;SDS011;43667;53.036;6.740;2022-07-19T11:13:45;4.03;;;1.45;;
57832;SDS011;43667;53.036;6.740;2022-07-19T11:16:12;6.60;;;1.25;;
57832;SDS011;43667;53.036;6.740;2022-07-19T11:18:38;7.05;;;1.42;;
57832;SDS011;43667;53.036;6.740;2022-07-19T11:21:05;6.07;;;1.40;;
57832;SDS011;43667;53.036;6.740;2022-07-19T11:23:35;4.22;;;1.33;;
57832;SDS011;43667;53.036;6.740;2022-07-19T11:26:13;3.97;;;1.10;;
57832;SDS011;43667;53.036;6.740;2022-07-19T11:28:48;7.75;;;1.17;;
57832;SDS011;43667;53.036;6.740;2022-07-19T11:33:40;5.63;;;1.17;;
57832;SDS011;43667;53.036;6.740;2022-07-19T11:36:07;7.68;;;1.30;;
57832;SDS011;43667;53.036;6.740;2022-07-19T11:38:38;3.85;;;1.40;;
57832;SDS011;43667;53.036;6.740;2022-07-19T11:43:41;3.70;;;1.20;;
57832;SDS011;43667;53.036;6.740;2022-07-19T11:46:07;3.97;;;1.33;;
57832;SDS011;43667;53.036;6.740;2022-07-19T11:48:33;4.28;;;1.67;;
57832;SDS011;43667;53.036;6.740;2022-07-19T11:53:38;5.25;;;1.40;;
57832;SDS011;43667;53.036;6.740;2022-07-19T11:56:05;3.53;;;1.40;;
57832;SDS011;43667;53.036;6.740;2022-07-19T11:58:41;3.35;;;1.20;;
57832;SDS011;43667;53.036;6.740;2022-07-19T12:01:23;9.15;;;1.35;;
57832;SDS011;43667;53.036;6.740;2022-07-19T12:03:54;7.03;;;1.38;;
57832;SDS011;43667;53.036;6.740;2022-07-19T12:06:33;5.15;;;1.10;;
57832;SDS011;43667;53.036;6.740;2022-07-19T12:09:05;6.72;;;1.20;;
57832;SDS011;43667;53.036;6.740;2022-07-19T12:11:37;7.00;;;1.30;;
57832;SDS011;43667;53.036;6.740;2022-07-19T12:14:16;4.25;;;1.20;;
57832;SDS011;43667;53.036;6.740;2022-07-19T12:16:44;3.25;;;1.45;;
57832;SDS011;43667;53.036;6.740;2022-07-19T12:19:12;4.38;;;1.25;;
57832;SDS011;43667;53.036;6.740;2022-07-19T12:21:40;4.03;;;1.20;;
57832;SDS011;43667;53.036;6.740;2022-07-19T12:26:44;6.65;;;1.30;;
57832;SDS011;43667;53.036;6.740;2022-07-19T12:29:28;4.18;;;1.20;;
57832;SDS011;43667;53.036;6.740;2022-07-19T12:32:04;6.18;;;1.27;;
57832;SDS011;43667;53.036;6.740;2022-07-19T12:34:35;4.95;;;1.40;;
57832;SDS011;43667;53.036;6.740;2022-07-19T12:39:55;3.83;;;1.30;;
57832;SDS011;43667;53.036;6.740;2022-07-19T12:42:21;4.32;;;1.23;;
57832;SDS011;43667;53.036;6.740;2022-07-19T12:44:47;4.65;;;1.30;;
57832;SDS011;43667;53.036;6.740;2022-07-19T12:47:14;5.75;;;1.30;;
57832;SDS011;43667;53.036;6.740;2022-07-19T12:49:45;5.97;;;1.20;;
57832;SDS011;43667;53.036;6.740;2022-07-19T12:54:38;5.32;;;0.95;;
57832;SDS011;43667;53.036;6.740;2022-07-19T12:57:04;2.95;;;0.80;;
57832;SDS011;43667;53.036;6.740;2022-07-19T12:59:30;5.47;;;0.95;;
57832;SDS011;43667;53.036;6.740;2022-07-19T13:02:06;2.38;;;1.10;;
57832;SDS011;43667;53.036;6.740;2022-07-19T13:04:36;3.92;;;0.90;;
57832;SDS011;43667;53.036;6.740;2022-07-19T13:07:03;4.55;;;1.00;;
57832;SDS011;43667;53.036;6.740;2022-07-19T13:09:30;1.63;;;0.75;;
57832;SDS011;43667;53.036;6.740;2022-07-19T13:11:56;5.22;;;1.10;;
57832;SDS011;43667;53.036;6.740;2022-07-19T13:14:22;6.40;;;0.90;;
57832;SDS011;43667;53.036;6.740;2022-07-19T13:16:49;6.22;;;1.10;;
57832;SDS011;43667;53.036;6.740;2022-07-19T13:19:15;5.15;;;0.98;;
57832;SDS011;43667;53.036;6.740;2022-07-19T13:21:40;2.80;;;0.60;;
57832;SDS011;43667;53.036;6.740;2022-07-19T13:24:06;5.20;;;1.00;;
57832;SDS011;43667;53.036;6.740;2022-07-19T13:26:31;3.35;;;1.00;;
57832;SDS011;43667;53.036;6.740;2022-07-19T13:28:57;10.35;;;1.20;;
57832;SDS011;43667;53.036;6.740;2022-07-19T13:31:23;2.35;;;0.85;;
57832;SDS011;43667;53.036;6.740;2022-07-19T13:33:48;6.30;;;0.88;;
57832;SDS011;43667;53.036;6.740;2022-07-19T13:36:14;2.00;;;0.95;;
57832;SDS011;43667;53.036;6.740;2022-07-19T13:38:39;10.07;;;1.40;;
57832;SDS011;43667;53.036;6.740;2022-07-19T13:41:07;3.08;;;0.80;;
57832;SDS011;43667;53.036;6.740;2022-07-19T13:43:33;3.60;;;0.85;;
57832;SDS011;43667;53.036;6.740;2022-07-19T13:45:59;2.40;;;0.68;;
57832;SDS011;43667;53.036;6.740;2022-07-19T13:48:25;2.67;;;0.63;;
57832;SDS011;43667;53.036;6.740;2022-07-19T13:50:51;4.93;;;0.90;;
57832;SDS011;43667;53.036;6.740;2022-07-19T13:53:17;2.45;;;0.93;;
57832;SDS011;43667;53.036;6.740;2022-07-19T13:55:43;2.22;;;0.90;;
57832;SDS011;43667;53.036;6.740;2022-07-19T13:58:08;3.17;;;1.05;;
57832;SDS011;43667;53.036;6.740;2022-07-19T14:00:34;4.35;;;0.70;;
57832;SDS011;43667;53.036;6.740;2022-07-19T14:03:00;2.72;;;0.80;;
57832;SDS011;43667;53.036;6.740;2022-07-19T14:05:25;2.85;;;0.95;;
57832;SDS011;43667;53.036;6.740;2022-07-19T14:07:51;4.82;;;0.90;;
57832;SDS011;43667;53.036;6.740;2022-07-19T14:10:17;4.18;;;0.82;;
57832;SDS011;43667;53.036;6.740;2022-07-19T14:12:43;2.63;;;0.95;;
57832;SDS011;43667;53.036;6.740;2022-07-19T14:15:09;3.78;;;0.85;;
57832;SDS011;43667;53.036;6.740;2022-07-19T14:17:35;4.75;;;1.17;;
57832;SDS011;43667;53.036;6.740;2022-07-19T14:20:02;4.35;;;0.98;;
57832;SDS011;43667;53.036;6.740;2022-07-19T14:22:30;2.88;;;0.80;;
57832;SDS011;43667;53.036;6.740;2022-07-19T14:24:56;2.17;;;0.70;;
57832;SDS011;43667;53.036;6.740;2022-07-19T14:27:22;2.72;;;1.33;;
57832;SDS011;43667;53.036;6.740;2022-07-19T14:29:48;6.82;;;1.75;;
57832;SDS011;43667;53.036;6.740;2022-07-19T14:32:13;3.15;;;1.15;;
57832;SDS011;43667;53.036;6.740;2022-07-19T14:34:39;9.27;;;1.13;;
57832;SDS011;43667;53.036;6.740;2022-07-19T14:37:05;3.63;;;1.00;;
57832;SDS011;43667;53.036;6.740;2022-07-19T14:39:31;1.70;;;0.60;;
57832;SDS011;43667;53.036;6.740;2022-07-19T14:41:57;3.78;;;1.25;;
57832;SDS011;43667;53.036;6.740;2022-07-19T14:44:25;4.88;;;0.90;;
57832;SDS011;43667;53.036;6.740;2022-07-19T14:46:51;5.55;;;0.80;;
57832;SDS011;43667;53.036;6.740;2022-07-19T14:49:18;3.15;;;0.73;;
57832;SDS011;43667;53.036;6.740;2022-07-19T14:51:43;3.90;;;0.70;;
57832;SDS011;43667;53.036;6.740;2022-07-19T14:54:09;2.00;;;0.77;;
57832;SDS011;43667;53.036;6.740;2022-07-19T14:56:35;4.40;;;0.70;;
57832;SDS011;43667;53.036;6.740;2022-07-19T14:59:00;7.25;;;1.13;;
57832;SDS011;43667;53.036;6.740;2022-07-19T15:01:26;4.53;;;0.85;;
57832;SDS011;43667;53.036;6.740;2022-07-19T15:03:51;2.92;;;0.90;;
57832;SDS011;43667;53.036;6.740;2022-07-19T15:06:17;3.40;;;0.60;;
57832;SDS011;43667;53.036;6.740;2022-07-19T15:08:43;6.22;;;1.23;;
57832;SDS011;43667;53.036;6.740;2022-07-19T15:11:08;3.85;;;0.70;;
57832;SDS011;43667;53.036;6.740;2022-07-19T15:13:34;2.00;;;0.70;;
57832;SDS011;43667;53.036;6.740;2022-07-19T15:16:00;4.43;;;1.02;;
57832;SDS011;43667;53.036;6.740;2022-07-19T15:18:25;9.77;;;1.00;;
57832;SDS011;43667;53.036;6.740;2022-07-19T15:20:51;3.85;;;0.77;;